Delta, Alabama
Current Conditions -  °F | °C
As of 4:05 AM on Monday 26 Jan 2015 (Local Time) from KANB Reporting Station
Overcast Overcast  
Wind Chill: 40°   Ceiling: 1400
Heat Index: 45°   Visibility: 10mi
Dew Point: 40°   Wind: 10mph
Humidity: 82%   Direction: 270°W
Pressure: 29.82"   Gusts: NA
Location:  33.44°N, 85.69°W
Report Text: KANB 261005Z AUTO 27009KT 10SM BKN014 OVC019 07/04 A2982 RMK AO2 T00720044
Loading
Personal Weather Stations






























Interactive Weather Map New forecast layout! Learn more

10-Day Weather Forecast

Advertisements
Track Severe Weather on mobile